Time;durP1;ratioP1;P1;durP2;ratioP2;P2;SDS_P1;SDS_P2;PMS_P1;PMS_P2;Temp;Humidity;BMP_temperature;BMP_pressure;BME280_temperature;BME280_humidity;BME280_pressure;Samples;Min_cycle;Max_cycle;Signal;HPM_P1;HPM_P2
2021/11/03 00:00:44;;;;;;;37.78;22.15;;;;;;;6.96;84.87;99341.00;1745974;82;21745;-83
2021/11/03 00:03:10;;;;;;;35.73;20.00;;;;;;;6.95;84.87;99340.66;1745908;82;21405;-83
2021/11/03 00:05:47;;;;;;;37.05;20.77;;;;;;;6.95;84.89;99345.95;1745262;82;21051;-83
2021/11/03 00:08:18;;;;;;;38.10;21.45;;;;;;;6.95;84.91;99338.01;1745928;81;21091;-82
2021/11/03 00:10:45;;;;;;;35.55;22.10;;;;;;;6.98;84.93;99345.61;1745335;82;21491;-82
2021/11/03 00:13:13;;;;;;;30.72;19.95;;;;;;;6.99;84.94;99345.95;1745912;82;21028;-82
2021/11/03 00:15:39;;;;;;;28.02;19.37;;;;;;;7.00;84.94;99347.61;1745670;82;21136;-82
2021/11/03 00:18:05;;;;;;;29.48;18.87;;;;;;;6.99;84.94;99349.42;1745612;82;21918;-82
2021/11/03 00:20:33;;;;;;;27.82;19.05;;;;;;;6.97;84.95;99351.41;1745967;81;21004;-82
2021/11/03 00:22:59;;;;;;;34.60;20.02;;;;;;;6.95;84.96;99359.21;1746009;81;21060;-82
2021/11/03 00:25:25;;;;;;;30.62;20.02;;;;;;;6.95;84.96;99364.02;1745940;82;21043;-82
2021/11/03 00:27:51;;;;;;;31.80;18.62;;;;;;;6.93;84.98;99362.02;1746048;82;21048;-82
2021/11/03 00:30:17;;;;;;;32.28;21.15;;;;;;;6.93;84.98;99363.88;1731850;81;20985;-82
2021/11/03 00:32:48;;;;;;;34.35;19.92;;;;;;;6.89;84.98;99365.20;1675107;85;20936;-82
2021/11/03 00:35:12;;;;;;;35.80;20.88;;;;;;;6.85;84.96;99375.81;1714743;82;21099;-82
2021/11/03 00:37:38;;;;;;;38.50;20.75;;;;;;;6.80;84.96;99372.84;1715919;83;21012;-82
2021/11/03 00:40:05;;;;;;;35.35;22.02;;;;;;;6.74;84.95;99382.31;1715583;83;21133;-82
2021/11/03 00:42:32;;;;;;;28.45;18.92;;;;;;;6.71;84.94;99380.50;1715766;83;20988;-82
2021/11/03 00:44:58;;;;;;;30.75;19.12;;;;;;;6.67;84.94;99377.86;1715745;82;20996;-83
2021/11/03 00:47:25;;;;;;;29.70;18.77;;;;;;;6.66;84.94;99380.17;1675731;85;20981;-83
2021/11/03 00:49:52;;;;;;;29.70;18.57;;;;;;;6.62;84.92;99377.53;1715897;83;21046;-82
2021/11/03 00:52:19;;;;;;;37.95;19.82;;;;;;;6.57;84.89;99375.91;1715811;82;21154;-83
2021/11/03 00:54:45;;;;;;;36.28;20.20;;;;;;;6.54;84.92;99380.52;1715933;82;21071;-82
2021/11/03 00:57:11;;;;;;;32.65;20.72;;;;;;;6.51;84.92;99381.36;1716096;82;20969;-82
2021/11/03 00:59:37;;;;;;;33.48;20.95;;;;;;;6.49;84.92;99377.58;1675371;85;21068;-82
2021/11/03 01:02:04;;;;;;;37.45;21.40;;;;;;;6.47;84.93;99384.84;1689912;84;21035;-82
2021/11/03 01:04:30;;;;;;;32.23;21.17;;;;;;;6.47;84.93;99380.07;1675539;85;21677;-82
2021/11/03 01:06:56;;;;;;;30.30;19.12;;;;;;;6.49;84.93;99380.22;1715821;82;21685;-82
2021/11/03 01:09:22;;;;;;;35.38;20.92;;;;;;;6.51;84.93;99385.33;1715974;82;21083;-82
2021/11/03 01:11:48;;;;;;;36.25;21.37;;;;;;;6.48;84.92;99383.86;1715906;82;20865;-82
2021/11/03 01:14:14;;;;;;;38.23;21.62;;;;;;;6.47;84.92;99382.20;1715851;82;21019;-82
2021/11/03 01:16:40;;;;;;;38.10;20.17;;;;;;;6.46;84.91;99388.51;1675471;85;21091;-82
2021/11/03 01:19:06;;;;;;;31.70;18.80;;;;;;;6.44;84.92;99384.35;1715759;83;21008;-83
2021/11/03 01:21:34;;;;;;;32.98;20.80;;;;;;;6.42;84.93;99389.84;1716036;82;21559;-82
2021/11/03 01:24:00;;;;;;;37.38;20.40;;;;;;;6.39;84.93;99390.17;1715150;82;21001;-82
2021/11/03 01:26:26;;;;;;;33.38;20.08;;;;;;;6.38;84.92;99389.84;1716043;82;21056;-82
2021/11/03 01:28:52;;;;;;;33.73;19.92;;;;;;;6.34;84.92;99389.84;1715322;82;21504;-83
2021/11/03 01:31:19;;;;;;;33.95;19.85;;;;;;;6.32;84.95;99385.22;1715574;82;21724;-82
2021/11/03 01:33:45;;;;;;;34.27;19.82;;;;;;;6.23;84.92;99380.08;1715862;83;21008;-82
2021/11/03 01:36:12;;;;;;;35.98;20.88;;;;;;;6.25;84.92;99388.20;1715668;83;21000;-82
2021/11/03 01:38:38;;;;;;;34.20;19.98;;;;;;;6.19;84.92;99389.38;1716007;83;21036;-82
2021/11/03 01:41:05;;;;;;;31.70;19.48;;;;;;;6.16;84.93;99379.92;1715747;82;21073;-82
2021/11/03 01:43:45;;;;;;;33.95;19.62;;;;;;;6.14;84.94;99380.60;1715633;83;21040;-82
2021/11/03 01:46:26;;;;;;;;;;;;;;;6.11;84.93;99379.61;1718623;83;21063;-82
2021/11/03 01:48:58;;;;;;;38.78;21.80;;;;;;;6.06;84.93;99373.98;1703522;83;20618;-82
2021/11/03 01:51:37;;;;;;;31.33;19.57;;;;;;;6.01;84.93;99373.17;1714977;82;21484;-83
2021/11/03 01:54:04;;;;;;;33.55;21.07;;;;;;;5.94;84.90;99377.48;1715876;82;21961;-82
2021/11/03 01:56:31;;;;;;;26.90;18.67;;;;;;;5.92;84.89;99375.97;1715963;82;21066;-83
2021/11/03 01:59:21;;;;;;;31.82;19.05;;;;;;;5.92;84.88;99381.26;1715854;82;21060;-82
2021/11/03 02:01:47;;;;;;;28.00;19.98;;;;;;;5.89;84.90;99372.33;1715945;82;21008;-82
2021/11/03 02:04:13;;;;;;;30.27;20.25;;;;;;;5.87;84.88;99381.77;1715874;82;21068;-82
2021/11/03 02:06:39;;;;;;;31.55;19.95;;;;;;;5.85;84.86;99376.27;1675196;85;21180;-82
2021/11/03 02:09:05;;;;;;;31.15;19.87;;;;;;;5.84;84.87;99379.92;1715989;82;21635;-82
2021/11/03 02:11:31;;;;;;;34.27;22.75;;;;;;;5.81;84.87;99379.73;1715876;82;21626;-82
2021/11/03 02:13:58;;;;;;;34.55;22.10;;;;;;;5.80;84.87;99373.30;1715865;82;21594;-82
2021/11/03 02:16:25;;;;;;;34.18;19.05;;;;;;;5.76;84.89;99365.36;1715890;83;21008;-82
2021/11/03 02:18:52;;;;;;;31.57;20.77;;;;;;;5.75;84.91;99371.63;1675496;85;21359;-82
2021/11/03 02:21:24;;;;;;;29.00;19.62;;;;;;;5.73;84.93;99366.52;1715831;83;21008;-82
2021/11/03 02:24:17;;;;;;;33.42;19.77;;;;;;;5.72;84.94;99364.03;1704785;83;21047;-82
2021/11/03 02:26:46;;;;;;;31.73;20.70;;;;;;;5.70;84.93;99368.67;1715923;82;20996;-82
2021/11/03 02:29:16;;;;;;;30.68;19.90;;;;;;;5.64;84.97;99362.69;1675575;85;21035;-82
2021/11/03 02:31:46;;;;;;;;;;;;;;;5.56;84.98;99357.42;1721248;82;21233;-82
2021/11/03 02:34:21;;;;;;;;;;;;;;;5.49;85.00;99354.08;1748417;82;20226;-82
2021/11/03 02:37:05;;;;;;;37.17;20.82;;;;;;;5.42;85.03;99346.95;1744336;82;20214;-82
2021/11/03 02:39:43;;;;;;;35.30;20.62;;;;;;;5.31;85.03;99347.30;1742125;82;21527;-82
2021/11/03 02:42:09;;;;;;;35.20;21.25;;;;;;;5.24;85.05;99350.25;1722701;82;21011;-82
2021/11/03 02:44:38;;;;;;;38.80;21.48;;;;;;;5.16;85.05;99352.86;1745766;82;21141;-82
2021/11/03 02:47:04;;;;;;;35.00;21.07;;;;;;;5.09;85.09;99348.72;1745866;81;20999;-83
2021/11/03 02:49:31;;;;;;;35.45;20.80;;;;;;;5.03;85.09;99344.08;1745657;81;21054;-82
2021/11/03 02:51:57;;;;;;;37.38;21.97;;;;;;;4.98;85.10;99341.09;1745840;81;21012;-82
2021/11/03 02:54:23;;;;;;;39.85;22.58;;;;;;;4.91;85.11;99343.54;1745767;82;21078;-82
2021/11/03 02:56:53;;;;;;;35.03;21.60;;;;;;;4.84;85.10;99343.02;1745897;82;21499;-82
2021/11/03 02:59:22;;;;;;;32.58;21.25;;;;;;;4.77;85.13;99342.83;1745961;82;20980;-83
2021/11/03 03:01:52;;;;;;;35.97;21.87;;;;;;;4.74;85.15;99339.67;1745996;82;21593;-82
2021/11/03 03:04:25;;;;;;;48.90;26.15;;;;;;;4.66;85.18;99343.11;1746021;82;21043;-82
2021/11/03 03:06:51;;;;;;;47.58;28.15;;;;;;;4.57;85.19;99341.91;1744935;82;21563;-82
2021/11/03 03:09:17;;;;;;;39.00;25.45;;;;;;;4.48;85.20;99344.50;1746111;82;21542;-82
2021/11/03 03:11:49;;;;;;;41.65;27.07;;;;;;;4.43;85.18;99345.45;1745806;82;21405;-82
2021/11/03 03:14:18;;;;;;;46.92;27.90;;;;;;;4.40;85.19;99341.80;1746033;82;21054;-82
2021/11/03 03:16:46;;;;;;;36.77;25.53;;;;;;;4.41;85.19;99344.79;1745360;82;21047;-83
2021/11/03 03:19:13;;;;;;;38.50;24.32;;;;;;;4.42;85.23;99353.05;1745622;82;21063;-82
2021/11/03 03:21:40;;;;;;;40.03;24.15;;;;;;;4.41;85.24;99345.28;1745959;82;21082;-82
2021/11/03 03:24:07;;;;;;;38.45;23.60;;;;;;;4.38;85.24;99346.42;1745859;82;21050;-82
2021/11/03 03:26:33;;;;;;;36.48;22.58;;;;;;;4.35;85.26;99349.38;1745758;82;21074;-82
2021/11/03 03:28:59;;;;;;;35.10;21.48;;;;;;;4.33;85.26;99355.30;1745838;82;21036;-82
2021/11/03 03:31:26;;;;;;;31.48;19.60;;;;;;;4.33;85.25;99365.84;1730791;82;21038;-82
2021/11/03 03:33:53;;;;;;;29.63;19.15;;;;;;;4.32;85.29;99365.53;1715159;82;21764;-82
2021/11/03 03:36:20;;;;;;;30.80;19.10;;;;;;;4.31;85.27;99371.78;1675035;85;21048;-82
2021/11/03 03:38:46;;;;;;;36.20;20.45;;;;;;;4.32;85.25;99370.81;1716064;82;21032;-82
2021/11/03 03:41:13;;;;;;;33.95;19.40;;;;;;;4.33;85.25;99371.13;1715719;83;21100;-82
2021/11/03 03:43:39;;;;;;;31.12;19.17;;;;;;;4.34;85.26;99370.16;1716066;82;21004;-82
2021/11/03 03:46:05;;;;;;;34.10;19.25;;;;;;;4.36;85.23;99374.77;1715970;83;21136;-82
2021/11/03 03:48:31;;;;;;;31.65;19.70;;;;;;;4.37;85.25;99376.44;1675231;85;21139;-82
2021/11/03 03:50:57;;;;;;;32.60;19.65;;;;;;;4.38;85.21;99378.09;1715986;82;21532;-82
2021/11/03 03:53:23;;;;;;;43.30;22.30;;;;;;;4.39;85.23;99382.41;1715815;83;21621;-82
2021/11/03 03:55:50;;;;;;;39.53;20.17;;;;;;;4.36;85.25;99377.93;1715965;83;21005;-82
2021/11/03 03:58:17;;;;;;;37.73;21.87;;;;;;;4.35;85.27;99379.73;1716033;82;21092;-82
2021/11/03 04:00:46;;;;;;;34.18;19.77;;;;;;;4.28;85.30;99377.38;1675476;85;21016;-82
2021/11/03 04:03:12;;;;;;;35.25;20.02;;;;;;;4.28;85.31;99386.61;1715795;82;21016;-82
2021/11/03 04:05:38;;;;;;;31.12;19.60;;;;;;;4.24;85.33;99389.22;1716002;83;20993;-82
2021/11/03 04:08:04;;;;;;;28.42;18.07;;;;;;;4.22;85.35;99385.89;1715899;82;21649;-82
2021/11/03 04:10:31;;;;;;;31.40;19.52;;;;;;;4.24;85.37;99379.16;1715805;82;21150;-82
2021/11/03 04:12:57;;;;;;;33.42;18.37;;;;;;;4.26;85.37;99380.64;1675361;85;21056;-81
2021/11/03 04:15:23;;;;;;;34.25;20.10;;;;;;;4.28;85.39;99381.34;1715741;82;21036;-82
2021/11/03 04:17:49;;;;;;;32.93;20.05;;;;;;;4.30;85.38;99380.68;1715659;82;21051;-82
2021/11/03 04:20:16;;;;;;;31.42;19.10;;;;;;;4.30;85.39;99385.95;1715523;82;21551;-82
2021/11/03 04:22:42;;;;;;;29.85;18.95;;;;;;;4.30;85.41;99392.55;1705541;83;21583;-82
2021/11/03 04:25:08;;;;;;;30.65;19.87;;;;;;;4.29;85.43;99389.56;1715764;82;21000;-82
2021/11/03 04:27:34;;;;;;;33.78;21.57;;;;;;;4.30;85.43;99396.52;1715856;82;21028;-82
2021/11/03 04:30:00;;;;;;;38.98;22.95;;;;;;;4.29;85.45;99394.84;1715591;82;21182;-82
2021/11/03 04:32:26;;;;;;;34.05;22.40;;;;;;;4.33;85.46;99389.60;1685872;85;21067;-82
2021/11/03 04:34:53;;;;;;;33.40;22.22;;;;;;;4.36;85.47;99395.88;1714498;83;22493;-82
2021/11/03 04:37:19;;;;;;;34.50;20.43;;;;;;;4.40;85.46;99390.64;1688905;85;21003;-82
2021/11/03 04:39:45;;;;;;;30.77;19.48;;;;;;;4.46;85.46;99393.16;1714708;83;21011;-82
2021/11/03 04:42:11;;;;;;;31.80;19.77;;;;;;;4.49;85.48;99400.28;1689061;84;21499;-82
2021/11/03 04:44:37;;;;;;;37.48;20.32;;;;;;;4.49;85.53;99404.23;1714749;83;20975;-82
2021/11/03 04:47:04;;;;;;;34.98;20.48;;;;;;;4.52;85.50;99410.52;1688480;85;21096;-82
2021/11/03 04:49:30;;;;;;;34.05;20.27;;;;;;;4.57;85.54;99418.47;1714469;83;21468;-82
2021/11/03 04:51:56;;;;;;;32.48;20.50;;;;;;;4.59;85.54;99419.13;1689079;85;21052;-83
2021/11/03 04:54:22;;;;;;;29.30;20.37;;;;;;;4.60;85.57;99418.99;1714603;83;20900;-82
2021/11/03 04:56:49;;;;;;;30.30;20.50;;;;;;;4.66;85.57;99421.48;1689177;85;21095;-82
2021/11/03 04:59:17;;;;;;;31.50;19.82;;;;;;;4.70;85.59;99422.83;1714549;83;21730;-82
2021/11/03 05:01:44;;;;;;;31.77;19.10;;;;;;;4.75;85.61;99421.89;1689164;85;21019;-82
2021/11/03 05:04:10;;;;;;;32.48;20.25;;;;;;;4.77;85.62;99428.66;1714463;83;21087;-82
2021/11/03 05:06:40;;;;;;;30.27;19.23;;;;;;;4.81;85.65;99429.17;1689090;85;21098;-82
2021/11/03 05:09:07;;;;;;;27.17;19.07;;;;;;;4.83;85.66;99435.11;1714750;83;21964;-82
2021/11/03 05:11:33;;;;;;;30.92;19.45;;;;;;;4.89;85.68;99430.02;1689134;84;21318;-82
2021/11/03 05:13:59;;;;;;;32.35;19.50;;;;;;;4.94;85.71;99432.20;1714598;83;20984;-82
2021/11/03 05:16:26;;;;;;;27.05;18.67;;;;;;;5.03;85.74;99435.23;1689132;85;20948;-82
2021/11/03 05:18:52;;;;;;;29.40;19.17;;;;;;;5.10;85.75;99429.66;1714473;83;21274;-82
2021/11/03 05:21:18;;;;;;;30.85;19.45;;;;;;;5.15;85.77;99429.98;1688695;84;21594;-82
2021/11/03 05:23:44;;;;;;;25.88;17.98;;;;;;;5.23;85.79;99423.42;1714616;83;21051;-82
2021/11/03 05:26:12;;;;;;;32.17;19.55;;;;;;;5.26;85.81;99429.70;1689092;84;21472;-82
2021/11/03 05:28:39;;;;;;;29.42;18.10;;;;;;;5.31;85.82;99423.42;1691757;83;21070;-82
2021/11/03 05:31:06;;;;;;;26.35;18.15;;;;;;;5.32;85.83;99423.77;1688437;85;21541;-82
2021/11/03 05:33:32;;;;;;;31.48;20.27;;;;;;;5.39;85.87;99426.59;1701259;83;21020;-82
2021/11/03 05:35:58;;;;;;;35.17;24.40;;;;;;;5.40;85.88;99427.77;1681243;85;21084;-82
2021/11/03 05:38:24;;;;;;;54.42;27.65;;;;;;;5.44;85.91;99437.04;1701505;84;21036;-82
2021/11/03 05:40:50;;;;;;;32.65;20.88;;;;;;;5.51;85.91;99436.73;1681550;85;21079;-82
2021/11/03 05:43:16;;;;;;;34.92;21.33;;;;;;;5.59;85.91;99432.45;1701383;84;21051;-83
2021/11/03 05:45:42;;;;;;;31.35;20.50;;;;;;;5.65;85.93;99429.98;1681274;85;21075;-82
2021/11/03 05:48:10;;;;;;;29.15;20.65;;;;;;;5.71;85.94;99436.42;1701374;84;21097;-82
2021/11/03 05:50:36;;;;;;;32.83;18.27;;;;;;;5.77;85.93;99427.86;1681089;85;21020;-82
2021/11/03 05:53:02;;;;;;;33.08;19.62;;;;;;;5.82;85.93;99425.54;1701764;84;21000;-82
2021/11/03 05:55:30;;;;;;;38.30;22.93;;;;;;;5.85;85.96;99433.14;1681208;84;21484;-83
2021/11/03 05:57:57;;;;;;;27.77;20.23;;;;;;;5.88;85.96;99432.84;1701667;83;21040;-83
2021/11/03 06:00:27;;;;;;;24.43;17.25;;;;;;;5.90;85.96;99436.17;1681442;84;21167;-83
2021/11/03 06:02:53;;;;;;;25.52;17.77;;;;;;;5.91;85.97;99441.80;1701378;83;21059;-83
2021/11/03 06:05:20;;;;;;;24.85;16.27;;;;;;;5.92;85.97;99442.95;1681484;84;21024;-83
2021/11/03 06:08:01;;;;;;;26.80;18.15;;;;;;;5.96;85.96;99451.38;1701374;84;37982;-83
2021/11/03 06:10:35;;;;;;;27.20;16.40;;;;;;;5.98;85.95;99455.52;1681394;84;21024;-82
2021/11/03 06:13:02;;;;;;;27.90;17.60;;;;;;;6.00;85.98;99457.52;1700744;84;21158;-83
2021/11/03 06:15:28;;;;;;;25.45;17.45;;;;;;;6.01;85.97;99460.51;1681392;85;21076;-82
2021/11/03 06:17:55;;;;;;;26.77;18.30;;;;;;;6.03;86.00;99469.09;1701208;84;21012;-82
2021/11/03 06:20:21;;;;;;;27.65;17.45;;;;;;;6.03;85.97;99469.09;1681470;85;21555;-82
2021/11/03 06:22:47;;;;;;;27.35;17.35;;;;;;;6.03;85.98;99468.27;1701590;83;21493;-82
2021/11/03 06:25:15;;;;;;;26.40;17.85;;;;;;;6.07;85.96;99464.80;1681365;84;21909;-83
2021/11/03 06:27:42;;;;;;;27.17;17.60;;;;;;;6.09;85.96;99471.57;1701549;84;21020;-82
2021/11/03 06:30:09;;;;;;;23.40;15.75;;;;;;;6.09;85.94;99480.84;1681105;85;21025;-82
2021/11/03 06:32:35;;;;;;;22.93;16.95;;;;;;;6.11;85.96;99474.90;1701199;84;21009;-82
2021/11/03 06:35:05;;;;;;;25.02;16.60;;;;;;;6.09;85.95;99479.52;1681367;85;21579;-82
2021/11/03 06:37:32;;;;;;;24.65;15.32;;;;;;;6.11;85.93;99478.88;1690138;83;21131;-82
2021/11/03 06:39:58;;;;;;;25.15;17.05;;;;;;;6.14;85.95;99475.06;1701347;83;21531;-82
2021/11/03 06:42:24;;;;;;;26.25;16.05;;;;;;;6.17;85.93;99486.14;1661537;85;21712;-82
2021/11/03 06:44:51;;;;;;;29.23;17.82;;;;;;;6.19;85.92;99484.18;1701697;84;21036;-82
2021/11/03 06:47:19;;;;;;;31.55;20.02;;;;;;;6.20;85.92;99488.45;1681211;84;21111;-83
2021/11/03 06:49:47;;;;;;;27.10;18.30;;;;;;;6.22;85.91;99487.81;1701729;84;21107;-82
2021/11/03 06:52:13;;;;;;;24.92;16.77;;;;;;;6.27;85.92;99486.81;1681267;85;21015;-82
2021/11/03 06:54:39;;;;;;;25.05;16.70;;;;;;;6.32;85.90;99486.33;1701655;83;21689;-82
2021/11/03 06:57:05;;;;;;;26.20;17.75;;;;;;;6.38;85.91;99485.16;1681201;85;21515;-82
2021/11/03 06:59:32;;;;;;;27.52;18.62;;;;;;;6.42;85.90;99490.47;1701136;84;21091;-82
2021/11/03 07:01:58;;;;;;;24.10;18.57;;;;;;;6.45;85.88;99496.75;1667465;84;21158;-82
2021/11/03 07:04:24;;;;;;;26.33;17.90;;;;;;;6.51;85.87;99493.92;1678507;84;21531;-82
2021/11/03 07:06:50;;;;;;;31.42;20.43;;;;;;;6.54;85.84;99497.59;1657581;86;21073;-81
2021/11/03 07:09:16;;;;;;;32.05;18.40;;;;;;;6.54;85.83;99497.06;1650083;86;21097;-82
2021/11/03 07:11:42;;;;;;;28.47;17.07;;;;;;;6.54;85.83;99502.36;1645703;86;21101;-82
2021/11/03 07:14:11;;;;;;;21.97;16.10;;;;;;;6.55;85.82;99503.20;1638015;87;21340;-82
2021/11/03 07:16:37;;;;;;;31.77;18.90;;;;;;;6.58;85.82;99496.76;1667101;85;21043;-82
2021/11/03 07:19:03;;;;;;;30.20;17.87;;;;;;;6.60;85.82;99496.08;1638715;87;21078;-82
2021/11/03 07:21:29;;;;;;;23.90;14.93;;;;;;;6.67;85.79;99499.72;1667217;86;21111;-82
2021/11/03 07:23:55;;;;;;;30.17;16.23;;;;;;;6.69;85.76;99501.69;1644902;86;21600;-82
2021/11/03 07:26:21;;;;;;;40.10;20.17;;;;;;;6.69;85.72;99504.34;1665604;84;22086;-82
2021/11/03 07:28:47;;;;;;;34.55;20.15;;;;;;;6.72;85.69;99509.33;1654555;86;21050;-82
2021/11/03 07:31:14;;;;;;;29.20;17.35;;;;;;;6.77;85.69;99512.30;1639859;87;21574;-82
2021/11/03 07:33:40;;;;;;;30.55;17.42;;;;;;;6.82;85.67;99515.28;1639581;87;21547;-82
2021/11/03 07:36:08;;;;;;;37.17;18.35;;;;;;;6.87;85.66;99515.59;1641993;86;21063;-82
2021/11/03 07:38:34;;;;;;;31.68;16.40;;;;;;;6.91;85.63;99519.56;1662505;86;21195;-82
2021/11/03 07:41:00;;;;;;;33.42;16.00;;;;;;;6.98;85.62;99523.20;1662923;84;21428;-83
2021/11/03 07:43:27;;;;;;;25.08;14.63;;;;;;;7.01;85.61;99520.20;1663197;84;21001;-82
2021/11/03 07:45:54;;;;;;;25.02;14.68;;;;;;;7.09;85.60;99526.83;1678880;84;21045;-81
2021/11/03 07:48:22;;;;;;;29.10;16.52;;;;;;;7.14;85.56;99523.18;1664208;85;21052;-81
2021/11/03 07:50:53;;;;;;;24.15;15.35;;;;;;;7.21;85.56;99528.63;1673314;85;21816;-82
2021/11/03 07:53:21;;;;;;;26.33;14.90;;;;;;;7.27;85.53;99531.42;1663493;86;21030;-79
2021/11/03 07:55:51;;;;;;;29.72;15.38;;;;;;;7.36;85.50;99533.04;1684067;84;21601;-79
2021/11/03 07:58:21;;;;;;;24.55;14.03;;;;;;;7.44;85.47;99538.33;1659711;85;21025;-79
2021/11/03 08:00:47;;;;;;;;;;;;;;;7.56;85.44;99546.75;1711997;83;21000;-78
2021/11/03 08:03:13;;;;;;;24.60;15.05;;;;;;;7.63;85.38;99541.58;1709954;82;21892;-79
2021/11/03 08:05:39;;;;;;;23.15;14.23;;;;;;;7.69;85.35;99554.16;1717035;83;20877;-78
2021/11/03 08:08:10;;;;;;;21.42;13.68;;;;;;;7.78;85.33;99549.13;1716013;83;21103;-79
2021/11/03 08:10:34;;;;;;;19.57;13.37;;;;;;;7.89;85.33;99546.09;1710353;82;21020;-79
2021/11/03 08:13:00;;;;;;;16.42;11.88;;;;;;;8.01;85.28;99552.68;1717545;83;21036;-78
2021/11/03 08:15:27;;;;;;;21.90;12.90;;;;;;;8.09;85.25;99548.66;1719038;82;21224;-78
2021/11/03 08:17:54;;;;;;;21.55;11.97;;;;;;;8.18;85.18;99552.08;1717437;83;21047;-78
2021/11/03 08:20:25;;;;;;;26.77;15.05;;;;;;;8.24;85.14;99552.20;1713628;83;21604;-78
2021/11/03 08:22:54;;;;;;;28.60;17.02;;;;;;;8.33;85.11;99556.51;1720362;83;21533;-79
2021/11/03 08:25:20;;;;;;;26.20;14.55;;;;;;;8.42;85.06;99552.78;1705237;82;22297;-79
2021/11/03 08:27:46;;;;;;;18.15;12.75;;;;;;;8.53;85.05;99552.37;1717026;83;21459;-79
2021/11/03 08:30:13;;;;;;;17.62;12.60;;;;;;;8.65;85.01;99554.13;1712267;83;21505;-79
2021/11/03 08:32:47;;;;;;;22.67;13.62;;;;;;;8.77;84.96;99549.19;1714195;83;21096;-79
2021/11/03 08:35:13;;;;;;;21.75;14.35;;;;;;;8.89;84.93;99558.40;1720001;83;21051;-79
2021/11/03 08:37:39;;;;;;;28.02;14.47;;;;;;;9.00;84.86;99549.99;1723861;83;21128;-80
2021/11/03 08:40:08;;;;;;;28.92;13.50;;;;;;;9.09;84.83;99554.22;1716604;83;21092;-83
2021/11/03 08:42:34;;;;;;;17.12;11.38;;;;;;;9.11;84.71;99559.37;1717599;83;21091;-83
2021/11/03 08:45:00;;;;;;;20.55;11.35;;;;;;;9.08;84.66;99559.20;1727180;83;21426;-83
2021/11/03 08:47:26;;;;;;;18.27;12.28;;;;;;;9.10;84.57;99563.03;1721017;83;21108;-83
2021/11/03 08:49:53;;;;;;;21.97;12.00;;;;;;;9.10;84.53;99561.20;1716957;83;20920;-82
2021/11/03 08:52:20;;;;;;;17.98;11.35;;;;;;;9.15;84.45;99565.45;1716426;83;21099;-82
2021/11/03 08:54:49;;;;;;;19.73;12.33;;;;;;;9.17;84.41;99564.78;1718509;83;21100;-83
2021/11/03 08:57:14;;;;;;;18.80;12.88;;;;;;;9.20;84.34;99559.59;1723001;83;21001;-83
2021/11/03 08:59:44;;;;;;;26.27;16.37;;;;;;;9.26;84.25;99564.19;1720337;83;21038;-81
2021/11/03 09:02:10;;;;;;;21.07;14.25;;;;;;;9.32;84.20;99561.62;1715714;83;21041;-81
2021/11/03 09:04:36;;;;;;;14.58;10.82;;;;;;;9.40;84.14;99564.20;1726867;83;21488;-83
2021/11/03 09:07:08;;;;;;;17.73;11.43;;;;;;;9.41;84.05;99562.38;1716404;83;21052;-82
2021/11/03 09:09:32;;;;;;;16.30;11.00;;;;;;;9.36;83.95;99555.42;1726372;82;21182;-82
2021/11/03 09:11:58;;;;;;;20.30;12.98;;;;;;;9.28;83.90;99563.02;1726151;83;20913;-81
2021/11/03 09:14:24;;;;;;;21.65;14.53;;;;;;;9.33;83.85;99566.44;1723579;82;21068;-81
2021/11/03 09:16:51;;;;;;;21.57;14.13;;;;;;;9.44;83.80;99568.16;1723479;83;21121;-81
2021/11/03 09:19:17;;;;;;;21.10;12.23;;;;;;;9.54;83.72;99564.70;1719435;83;21051;-81
2021/11/03 09:21:44;;;;;;;18.42;11.88;;;;;;;9.62;83.66;99563.80;1725072;83;21060;-81
2021/11/03 09:24:12;;;;;;;16.77;10.70;;;;;;;9.67;83.58;99562.75;1718425;83;21539;-83
2021/11/03 09:26:38;;;;;;;16.67;9.88;;;;;;;9.66;83.50;99563.75;1716814;83;21085;-81
2021/11/03 09:29:04;;;;;;;18.30;10.70;;;;;;;9.67;83.42;99565.91;1718653;83;21111;-81
2021/11/03 09:31:30;;;;;;;14.28;9.25;;;;;;;9.82;83.35;99569.37;1723183;82;21517;-81
2021/11/03 09:33:58;;;;;;;14.78;9.90;;;;;;;9.97;83.20;99569.69;1715146;83;21039;-81
2021/11/03 09:36:24;;;;;;;18.62;10.85;;;;;;;10.05;83.12;99560.77;1722790;83;21020;-80
2021/11/03 09:38:51;;;;;;;14.40;10.10;;;;;;;10.21;83.03;99561.89;1727037;83;21052;-81
2021/11/03 09:41:23;;;;;;;14.55;10.05;;;;;;;10.29;82.92;99561.78;1722569;81;21973;-81
2021/11/03 09:43:59;;;;;;;12.82;8.73;;;;;;;10.36;82.86;99558.69;1718656;83;21027;-81
2021/11/03 09:46:42;;;;;;;13.48;8.90;;;;;;;10.48;82.70;99559.81;1718606;83;21064;-80
2021/11/03 09:49:36;;;;;;;19.62;10.98;;;;;;;10.50;82.58;99559.64;1723585;83;21044;-80
2021/11/03 09:52:14;;;;;;;17.20;9.50;;;;;;;10.59;82.44;99564.36;1717669;83;21080;-81
2021/11/03 09:54:44;;;;;;;26.55;11.30;;;;;;;10.52;82.23;99561.09;1717203;82;21302;-79
2021/11/03 09:57:29;;;;;;;14.15;8.05;;;;;;;10.47;82.15;99555.52;1716032;83;21040;-79
2021/11/03 10:00:28;;;;;;;12.98;8.40;;;;;;;10.56;82.04;99552.72;1718806;83;21220;-79
2021/11/03 10:03:19;;;;;;;12.73;8.88;;;;;;;10.59;81.87;99555.02;1721541;82;21016;-81
2021/11/03 10:06:09;;;;;;;8.53;5.72;;;;;;;10.57;81.69;99551.70;1726020;83;21005;-82
2021/11/03 10:08:37;;;;;;;;;;;;;;;10.55;81.48;99551.09;1721895;83;21846;-82
2021/11/03 10:11:18;;;;;;;7.95;5.45;;;;;;;10.56;81.32;99550.05;1720807;83;20157;-83
2021/11/03 10:13:45;;;;;;;17.48;6.35;;;;;;;10.59;81.19;99551.83;1717987;83;21091;-82
2021/11/03 10:16:17;;;;;;;7.67;5.55;;;;;;;10.64;81.08;99547.27;1715027;83;21024;-82
2021/11/03 10:19:06;;;;;;;7.53;5.70;;;;;;;10.68;80.93;99543.20;1719749;83;21040;-82
2021/11/03 10:21:40;;;;;;;7.97;5.05;;;;;;;10.65;80.80;99546.25;1726940;82;25883;-82
2021/11/03 10:24:15;;;;;;;7.85;5.40;;;;;;;10.69;80.64;99537.69;1725896;83;21051;-82
2021/11/03 10:27:10;;;;;;;5.37;4.33;;;;;;;10.72;80.48;99536.47;1711881;83;21520;-83
2021/11/03 10:29:42;;;;;;;7.65;4.67;;;;;;;10.75;80.35;99538.25;1722309;83;21080;-83
2021/11/03 10:32:19;;;;;;;8.45;4.47;;;;;;;10.71;80.15;99544.15;1726632;83;21073;-82
2021/11/03 10:34:50;;;;;;;5.35;3.47;;;;;;;10.73;79.99;99542.13;1692091;83;21179;-82
2021/11/03 10:37:23;;;;;;;6.65;3.98;;;;;;;10.74;79.86;99541.92;1693754;83;21013;-82
2021/11/03 10:40:01;;;;;;;6.40;3.85;;;;;;;10.79;79.66;99552.86;1693517;83;21028;-82
2021/11/03 10:42:37;;;;;;;5.80;3.67;;;;;;;10.78;79.48;99548.53;1697308;83;21099;-82
2021/11/03 10:45:30;;;;;;;14.83;5.55;;;;;;;10.81;79.33;99545.98;1706946;83;21063;-83
2021/11/03 10:48:10;;;;;;;7.08;4.87;;;;;;;10.89;79.17;99552.52;1704047;83;21125;-82
2021/11/03 10:50:45;;;;;;;7.42;5.12;;;;;;;10.98;78.94;99546.02;1668052;86;21105;-83
2021/11/03 10:53:24;;;;;;;17.80;9.18;;;;;;;10.98;78.72;99550.84;1659832;86;21025;-83
2021/11/03 10:56:13;;;;;;;10.23;6.55;;;;;;;11.04;78.53;99546.59;1648864;85;21699;-83
2021/11/03 10:58:54;;;;;;;32.83;16.90;;;;;;;11.10;78.30;99558.32;1671818;84;21144;-84
2021/11/03 11:01:35;;;;;;;12.30;7.30;;;;;;;11.19;78.07;99559.31;1691392;84;21246;-83
2021/11/03 11:04:28;;;;;;;29.02;14.03;;;;;;;11.23;77.83;99555.23;1698303;83;21100;-82
2021/11/03 11:07:18;;;;;;;9.75;6.67;;;;;;;11.30;77.60;99545.94;1693450;83;21029;-82
2021/11/03 11:09:59;;;;;;;14.93;9.00;;;;;;;11.42;77.39;99543.87;1711566;82;21088;-82
2021/11/03 11:12:34;;;;;;;10.35;6.05;;;;;;;11.48;77.10;99548.42;1672916;83;21066;-82
2021/11/03 11:15:15;;;;;;;12.70;6.17;;;;;;;11.45;76.85;99546.16;1720136;83;21123;-83
2021/11/03 11:17:49;;;;;;;8.30;4.45;;;;;;;11.36;76.58;99540.67;1712995;83;21052;-82
2021/11/03 11:20:23;;;;;;;6.03;4.28;;;;;;;11.33;76.45;99535.69;1718957;83;21012;-82
2021/11/03 11:22:57;;;;;;;7.85;4.30;;;;;;;11.37;76.31;99527.61;1720380;83;21553;-82
2021/11/03 11:25:38;;;;;;;8.90;5.17;;;;;;;11.44;76.11;99520.47;1720925;83;21024;-83
2021/11/03 11:28:24;;;;;;;39.08;19.17;;;;;;;11.42;75.84;99519.85;1720089;83;21068;-82
2021/11/03 11:31:22;;;;;;;10.95;5.75;;;;;;;11.37;75.63;99516.94;1718309;83;21067;-82
2021/11/03 11:34:00;;;;;;;8.68;5.50;;;;;;;11.33;75.43;99511.67;1714429;83;20997;-84
2021/11/03 11:36:34;;;;;;;8.70;5.83;;;;;;;11.31;75.29;99495.04;1639310;86;21107;-83